Time;durP1;ratioP1;P1;durP2;ratioP2;P2;SDS_P1;SDS_P2;PMS_P1;PMS_P2;Temp;Humidity;BMP_temperature;BMP_pressure;BME280_temperature;BME280_humidity;BME280_pressure;Samples;Min_cycle;Max_cycle;Signal;HPM_P1;HPM_P2
2022/10/02 00:01:24;;;;;;;4.03;3.13;;;;;;;11.42;100.00;99070.09;5091330;28;20024;-76
2022/10/02 00:03:52;;;;;;;5.18;3.22;;;;;;;11.44;100.00;99078.66;5091512;28;20028;-76
2022/10/02 00:06:22;;;;;;;4.03;2.78;;;;;;;11.39;100.00;99072.03;5091347;28;20070;-76
2022/10/02 00:08:53;;;;;;;5.00;3.10;;;;;;;11.42;100.00;99077.91;5091707;28;20051;-76
2022/10/02 00:11:25;;;;;;;5.18;3.00;;;;;;;11.43;100.00;99083.97;5091849;28;20450;-76
2022/10/02 00:13:57;;;;;;;4.70;3.10;;;;;;;11.45;100.00;99090.75;5091929;28;20031;-76
2022/10/02 00:16:30;;;;;;;4.63;3.08;;;;;;;11.48;100.00;99103.63;5090104;28;20462;-76
2022/10/02 00:18:56;;;;;;;5.10;2.95;;;;;;;11.44;100.00;99099.50;5091329;28;20018;-76
2022/10/02 00:21:47;;;;;;;9.40;3.22;;;;;;;11.48;100.00;99108.81;5091406;28;20102;-76
2022/10/02 00:24:33;;;;;;;5.88;3.40;;;;;;;11.40;100.00;99087.56;5091524;28;20030;-76
2022/10/02 00:27:28;;;;;;;3.08;2.78;;;;;;;11.49;100.00;99107.06;5091417;28;20024;-76
2022/10/02 00:29:56;;;;;;;4.93;2.95;;;;;;;11.50;100.00;99106.13;5091420;28;20089;-76
2022/10/02 00:32:30;;;;;;;3.55;2.72;;;;;;;11.51;100.00;99106.97;5091231;28;20152;-76
2022/10/02 00:35:34;;;;;;;3.33;2.50;;;;;;;11.44;100.00;99098.66;5091320;28;20020;-76
2022/10/02 00:38:33;;;;;;;3.75;2.80;;;;;;;11.47;100.00;99114.16;5091526;28;20016;-76
2022/10/02 00:41:14;;;;;;;4.40;3.05;;;;;;;11.47;100.00;99114.97;5091467;28;20016;-76
2022/10/02 00:44:07;;;;;;;4.53;2.80;;;;;;;11.46;100.00;99110.69;5091108;28;20070;-76
2022/10/02 00:46:53;;;;;;;3.70;2.70;;;;;;;11.40;100.00;99113.66;5091413;28;20019;-76
2022/10/02 00:49:39;;;;;;;4.30;2.30;;;;;;;11.44;100.00;99120.38;5090893;28;20448;-76
2022/10/02 00:52:26;;;;;;;4.40;2.55;;;;;;;11.46;100.00;99120.25;5091061;28;20032;-76
2022/10/02 00:55:14;;;;;;;3.88;2.63;;;;;;;11.47;100.00;99116.75;5091260;28;20548;-77
2022/10/02 00:57:47;;;;;;;3.85;2.78;;;;;;;11.47;100.00;99127.19;5090499;28;20081;-76
2022/10/02 01:00:15;;;;;;;4.72;3.15;;;;;;;11.38;100.00;99112.91;5091054;28;20032;-76
2022/10/02 01:03:06;;;;;;;4.28;2.85;;;;;;;11.45;100.00;99132.47;5090799;28;20397;-76
2022/10/02 01:05:33;;;;;;;5.28;3.03;;;;;;;11.42;100.00;99127.47;5090756;28;20390;-76
2022/10/02 01:07:59;;;;;;;3.72;2.78;;;;;;;11.47;100.00;99137.63;5090949;28;20024;-76
2022/10/02 01:10:26;;;;;;;4.97;3.13;;;;;;;11.41;100.00;99128.34;5090933;28;20040;-76
2022/10/02 01:12:53;;;;;;;6.40;2.65;;;;;;;11.44;100.00;99141.22;5091396;28;20145;-76
2022/10/02 01:15:21;;;;;;;5.13;2.60;;;;;;;11.43;100.00;99136.94;5094836;28;20051;-76
2022/10/02 01:17:51;;;;;;;6.38;3.28;;;;;;;11.44;100.00;99138.63;5094991;28;20031;-76
2022/10/02 01:20:25;;;;;;;4.97;2.90;;;;;;;11.46;100.00;99146.34;5094928;28;20032;-76
2022/10/02 01:23:16;;;;;;;5.07;3.20;;;;;;;11.50;100.00;99158.28;5094715;28;20021;-76
2022/10/02 01:25:42;;;;;;;4.60;2.78;;;;;;;11.50;100.00;99153.06;5094436;28;20020;-76
2022/10/02 01:28:09;;;;;;;6.32;2.75;;;;;;;11.46;100.00;99146.34;5094629;28;20042;-76
2022/10/02 01:30:37;;;;;;;4.05;3.00;;;;;;;11.46;100.00;99157.63;5094470;28;20024;-76
2022/10/02 01:33:04;;;;;;;4.75;3.10;;;;;;;11.44;100.00;99149.06;5094616;28;20043;-76
2022/10/02 01:35:33;;;;;;;8.23;3.65;;;;;;;11.47;100.00;99156.69;5094294;28;20038;-77
2022/10/02 01:38:04;;;;;;;5.10;2.67;;;;;;;11.44;100.00;99161.25;5094686;28;20473;-76
2022/10/02 01:40:33;;;;;;;6.47;3.08;;;;;;;11.51;100.00;99170.41;5094315;28;20051;-76
2022/10/02 01:43:20;;;;;;;9.52;4.50;;;;;;;11.44;100.00;99161.25;5094467;28;20031;-76
2022/10/02 01:46:10;;;;;;;6.88;2.88;;;;;;;11.51;100.00;99180.00;5093898;28;20113;-76
2022/10/02 01:48:45;;;;;;;5.82;2.90;;;;;;;11.49;100.00;99180.06;5094011;28;20051;-76
2022/10/02 01:51:40;;;;;;;6.90;2.60;;;;;;;11.50;100.00;99194.78;5094442;28;20106;-76
2022/10/02 01:54:38;;;;;;;7.35;3.13;;;;;;;11.51;100.00;99191.28;5094417;28;20037;-76
2022/10/02 01:57:22;;;;;;;6.38;2.95;;;;;;;11.51;100.00;99196.50;5094138;28;20023;-76
2022/10/02 02:00:10;;;;;;;5.53;2.97;;;;;;;11.47;100.00;99192.38;5094216;28;20024;-76
2022/10/02 02:03:09;;;;;;;6.90;2.90;;;;;;;11.49;100.00;99199.16;5093843;28;20059;-76
2022/10/02 02:06:09;;;;;;;6.85;2.90;;;;;;;11.49;100.00;99211.38;5093718;28;20054;-76
2022/10/02 02:09:09;;;;;;;7.03;2.83;;;;;;;11.42;100.00;99189.19;5093524;28;20062;-76
2022/10/02 02:11:41;;;;;;;7.90;3.08;;;;;;;11.42;100.00;99205.69;5030904;28;20362;-76
2022/10/02 02:14:25;;;;;;;5.55;2.80;;;;;;;11.47;100.00;99210.63;5031101;28;20030;-76
2022/10/02 02:17:27;;;;;;;4.72;3.03;;;;;;;11.48;100.00;99213.16;5031079;28;20040;-76
2022/10/02 02:20:07;;;;;;;6.47;3.10;;;;;;;11.39;100.00;99211.06;4972144;28;20078;-76
2022/10/02 02:22:38;;;;;;;7.05;2.70;;;;;;;11.40;100.00;99227.53;4971903;28;20122;-76
2022/10/02 02:25:14;;;;;;;7.53;3.45;;;;;;;11.23;100.00;99212.84;4971062;28;20065;-76
2022/10/02 02:27:48;;;;;;;5.15;3.20;;;;;;;11.20;100.00;99213.03;4971899;28;20074;-76
2022/10/02 02:30:15;;;;;;;5.32;3.03;;;;;;;11.20;100.00;99231.25;4971882;28;20134;-76
2022/10/02 02:32:51;;;;;;;6.13;3.42;;;;;;;11.20;100.00;99231.25;4971886;28;20035;-76
2022/10/02 02:35:24;;;;;;;8.32;3.20;;;;;;;11.24;100.00;99240.59;4972017;28;20059;-76
2022/10/02 02:37:54;;;;;;;7.70;3.30;;;;;;;11.30;100.00;99247.25;4971889;28;20114;-76
2022/10/02 02:40:24;;;;;;;9.93;3.75;;;;;;;11.36;100.00;99252.13;4971912;28;20035;-76
2022/10/02 02:42:59;;;;;;;6.50;2.97;;;;;;;11.31;100.00;99241.94;4971777;28;20054;-76
2022/10/02 02:45:30;;;;;;;7.25;3.30;;;;;;;11.39;100.00;99255.41;4971518;28;20030;-76
2022/10/02 02:48:21;;;;;;;7.13;3.47;;;;;;;11.34;100.00;99247.00;5035654;28;20060;-76
2022/10/02 02:50:50;;;;;;;8.35;3.35;;;;;;;11.43;100.00;99251.69;5050386;28;20029;-76
2022/10/02 02:53:37;;;;;;;9.98;3.35;;;;;;;11.43;100.00;99249.06;5050255;28;20028;-76
2022/10/02 02:56:07;;;;;;;10.32;4.13;;;;;;;11.38;100.00;99258.94;5069329;28;20031;-76
2022/10/02 02:58:32;;;;;;;7.18;3.00;;;;;;;11.43;100.00;99256.91;5092818;28;20104;-77
2022/10/02 03:00:57;;;;;;;6.78;3.13;;;;;;;11.37;100.00;99249.41;5092983;28;20507;-76
2022/10/02 03:03:23;;;;;;;10.18;3.03;;;;;;;11.39;100.00;99259.78;5092506;28;20023;-76
2022/10/02 03:05:52;;;;;;;7.68;2.75;;;;;;;11.38;100.00;99251.13;5092797;28;20044;-76
2022/10/02 03:08:26;;;;;;;6.97;3.25;;;;;;;11.44;100.00;99262.94;5092860;28;20020;-76
2022/10/02 03:11:04;;;;;;;7.97;3.33;;;;;;;11.42;100.00;99268.25;5092768;28;20035;-76
2022/10/02 03:13:35;;;;;;;8.65;2.80;;;;;;;11.40;100.00;99264.06;5092542;28;20078;-76
2022/10/02 03:16:22;;;;;;;9.35;3.13;;;;;;;11.40;100.00;99285.75;5092608;28;20035;-76
2022/10/02 03:19:07;;;;;;;5.20;2.78;;;;;;;11.41;100.00;99273.53;5092543;28;20103;-76
2022/10/02 03:21:52;;;;;;;4.88;2.80;;;;;;;11.30;100.00;99265.50;5092401;28;20031;-76
2022/10/02 03:24:58;;;;;;;3.88;2.78;;;;;;;11.41;100.00;99289.19;5092325;28;20077;-76
2022/10/02 03:27:40;;;;;;;9.00;3.20;;;;;;;11.34;100.00;99280.06;5092336;28;20113;-76
2022/10/02 03:30:10;;;;;;;8.65;3.33;;;;;;;11.37;100.00;99290.28;5092267;28;20112;-76
2022/10/02 03:32:37;;;;;;;7.25;2.72;;;;;;;11.39;100.00;99297.13;5091903;28;20106;-76
2022/10/02 03:35:05;;;;;;;8.38;3.38;;;;;;;11.35;100.00;99284.34;5092368;28;20021;-77
2022/10/02 03:37:31;;;;;;;8.27;3.42;;;;;;;11.32;100.00;99281.88;5091867;28;20516;-76
2022/10/02 03:39:58;;;;;;;12.23;3.17;;;;;;;11.37;100.00;99303.31;5092161;28;20046;-76
2022/10/02 03:42:25;;;;;;;6.00;3.30;;;;;;;11.34;100.00;99299.13;5091906;28;20623;-76
2022/10/02 03:44:51;;;;;;;12.00;3.60;;;;;;;11.34;100.00;99301.75;5092075;28;20077;-76
2022/10/02 03:47:16;;;;;;;9.65;3.42;;;;;;;11.34;100.00;99303.53;5092180;28;20032;-76
2022/10/02 03:49:41;;;;;;;10.38;3.38;;;;;;;11.36;100.00;99302.50;5091658;28;20016;-76
2022/10/02 03:52:14;;;;;;;8.02;3.40;;;;;;;11.34;100.00;99301.75;5092039;28;20023;-76
2022/10/02 03:54:39;;;;;;;6.03;3.42;;;;;;;11.28;100.00;99299.47;5091705;28;20020;-76
2022/10/02 03:57:07;;;;;;;7.50;3.40;;;;;;;11.30;100.00;99302.84;5091578;28;20604;-76
2022/10/02 03:59:35;;;;;;;10.95;3.47;;;;;;;11.31;100.00;99312.34;5091275;28;20024;-76
2022/10/02 04:02:08;;;;;;;10.23;3.58;;;;;;;11.26;100.00;99305.69;5091671;28;20039;-76
2022/10/02 04:04:46;;;;;;;7.10;3.55;;;;;;;11.32;100.00;99307.97;5091618;28;20619;-76
2022/10/02 04:07:19;;;;;;;6.60;3.15;;;;;;;11.27;100.00;99304.78;5091403;28;20040;-76
2022/10/02 04:09:47;;;;;;;7.80;2.97;;;;;;;11.33;100.00;99315.69;5091311;28;20078;-76
2022/10/02 04:12:18;;;;;;;8.23;3.80;;;;;;;11.31;100.00;99317.56;5091516;28;20050;-76
2022/10/02 04:14:59;;;;;;;8.02;2.95;;;;;;;11.28;100.00;99311.66;5091275;28;20520;-76
2022/10/02 04:17:30;;;;;;;8.57;3.25;;;;;;;11.33;100.00;99320.91;5091330;28;20387;-76
2022/10/02 04:19:58;;;;;;;;;;;;;;;11.34;100.00;99322.59;5092027;28;20031;-76
2022/10/02 04:22:33;;;;;;;11.75;3.42;;;;;;;11.33;100.00;99331.31;5091451;28;19904;-76
2022/10/02 04:25:09;;;;;;;5.55;2.58;;;;;;;11.30;100.00;99317.66;5091305;28;20031;-76
2022/10/02 04:27:41;;;;;;;7.35;2.97;;;;;;;11.31;100.00;99329.75;5091438;28;20020;-76
2022/10/02 04:30:14;;;;;;;10.05;3.17;;;;;;;11.25;100.00;99312.69;5091401;28;20532;-76
2022/10/02 04:32:40;;;;;;;6.00;2.83;;;;;;;11.27;100.00;99323.84;5091314;28;20027;-76
2022/10/02 04:35:35;;;;;;;9.30;2.83;;;;;;;11.29;100.00;99329.81;5091294;28;20462;-76
2022/10/02 04:38:25;;;;;;;5.35;2.78;;;;;;;11.28;100.00;99335.97;5091423;28;20016;-76
2022/10/02 04:41:08;;;;;;;4.32;2.60;;;;;;;11.23;100.00;99333.59;5091406;28;20036;-76
2022/10/02 04:43:33;;;;;;;7.38;3.00;;;;;;;11.32;100.00;99347.06;5090969;28;20034;-76
2022/10/02 04:46:34;;;;;;;6.97;3.08;;;;;;;11.29;100.00;99348.06;5091290;28;20094;-76
2022/10/02 04:48:59;;;;;;;7.97;2.80;;;;;;;11.20;100.00;99346.78;5011117;28;20037;-76
2022/10/02 04:51:46;;;;;;;8.98;3.45;;;;;;;11.13;100.00;99344.63;5012696;28;20575;-76
2022/10/02 04:54:39;;;;;;;9.23;3.10;;;;;;;11.08;100.00;99354.44;5012818;28;20101;-76
2022/10/02 04:57:23;;;;;;;7.18;2.60;;;;;;;11.03;100.00;99351.25;5012843;28;20092;-76
2022/10/02 05:00:07;;;;;;;7.43;2.60;;;;;;;11.00;100.00;99360.09;5012382;28;20065;-76
2022/10/02 05:03:00;;;;;;;8.90;2.40;;;;;;;10.96;100.00;99363.78;5012506;28;20022;-76
2022/10/02 05:06:00;;;;;;;8.25;2.70;;;;;;;10.91;100.00;99357.94;5012270;28;20607;-76
2022/10/02 05:08:41;;;;;;;10.88;3.28;;;;;;;10.84;100.00;99357.44;5012237;28;20029;-76
2022/10/02 05:11:34;;;;;;;6.22;2.47;;;;;;;10.81;100.00;99362.78;5012582;28;20117;-76
2022/10/02 05:14:23;;;;;;;7.10;3.03;;;;;;;10.79;100.00;99356.84;5012436;28;20041;-76
2022/10/02 05:17:02;;;;;;;8.90;2.78;;;;;;;10.77;100.00;99352.63;5012535;28;20033;-76
2022/10/02 05:19:39;;;;;;;9.20;3.45;;;;;;;10.81;100.00;99357.59;5012265;28;20076;-76
2022/10/02 05:22:24;;;;;;;8.73;3.08;;;;;;;10.93;100.00;99361.31;5012434;28;20460;-76
2022/10/02 05:24:58;;;;;;;9.13;3.00;;;;;;;11.06;100.00;99364.94;5018574;28;20038;-76
2022/10/02 05:27:34;;;;;;;5.60;2.72;;;;;;;11.27;100.00;99362.13;5094668;28;20031;-76
2022/10/02 05:30:17;;;;;;;5.00;2.67;;;;;;;11.37;100.00;99358.91;5094668;28;20020;-76
2022/10/02 05:32:45;;;;;;;11.63;3.00;;;;;;;11.45;100.00;99359.34;5094426;28;20035;-76
2022/10/02 05:35:13;;;;;;;8.30;2.90;;;;;;;11.40;100.00;99376.19;5094494;28;20020;-76
2022/10/02 05:38:02;;;;;;;9.30;3.10;;;;;;;11.39;100.00;99367.50;5094223;28;20043;-76
2022/10/02 05:40:28;;;;;;;7.72;2.88;;;;;;;11.53;100.00;99374.56;5011813;28;20045;-76
2022/10/02 05:43:02;;;;;;;9.00;3.25;;;;;;;11.76;100.00;99362.88;5012017;28;20038;-76
2022/10/02 05:45:38;;;;;;;10.00;3.20;;;;;;;12.02;100.00;99352.78;5011684;28;20034;-76
2022/10/02 05:48:13;;;;;;;7.20;3.17;;;;;;;12.27;100.00;99354.81;5011810;28;20026;-76
2022/10/02 05:50:40;;;;;;;12.98;3.75;;;;;;;12.31;100.00;99361.53;5011534;28;20420;-76
2022/10/02 05:53:23;;;;;;;11.63;3.28;;;;;;;12.30;100.00;99370.28;5011842;28;20091;-77
2022/10/02 05:55:58;;;;;;;10.23;3.47;;;;;;;12.19;100.00;99369.13;5011729;28;20076;-77
2022/10/02 05:58:33;;;;;;;8.48;3.70;;;;;;;12.16;100.00;99371.09;5011452;28;20527;-77
2022/10/02 06:01:07;;;;;;;7.50;3.35;;;;;;;12.06;100.00;99368.16;5011630;28;20136;-77
2022/10/02 06:03:38;;;;;;;11.48;3.60;;;;;;;12.24;100.00;99374.94;5011140;28;20121;-76
2022/10/02 06:06:16;;;;;;;7.82;3.50;;;;;;;12.44;100.00;99379.00;5011191;28;20046;-76
2022/10/02 06:08:49;;;;;;;13.50;3.67;;;;;;;12.46;100.00;99382.34;5011095;28;20028;-76
2022/10/02 06:11:23;;;;;;;9.85;3.20;;;;;;;12.42;100.00;99377.41;5011327;28;20045;-76
2022/10/02 06:13:55;;;;;;;8.60;3.78;;;;;;;12.53;100.00;99385.47;5011384;28;20041;-77
2022/10/02 06:16:27;;;;;;;8.73;3.58;;;;;;;12.43;100.00;99379.94;5014553;28;20564;-76
2022/10/02 06:19:01;;;;;;;7.70;3.10;;;;;;;12.47;100.00;99378.84;5093723;28;20019;-77
2022/10/02 06:21:29;;;;;;;12.75;3.80;;;;;;;12.59;100.00;99390.31;5093325;28;20028;-77
2022/10/02 06:23:59;;;;;;;7.07;3.45;;;;;;;12.59;100.00;99397.31;5093755;28;20375;-77
2022/10/02 06:26:57;;;;;;;6.95;3.00;;;;;;;12.56;100.00;99387.06;5093538;28;20031;-77
2022/10/02 06:29:49;;;;;;;6.72;3.30;;;;;;;12.48;100.00;99395.34;5093179;28;20020;-77
2022/10/02 06:32:25;;;;;;;7.35;3.67;;;;;;;12.47;100.00;99398.84;5011132;28;20123;-77
2022/10/02 06:34:51;;;;;;;8.93;3.33;;;;;;;12.57;100.00;99389.56;5011047;28;20030;-77
2022/10/02 06:37:41;;;;;;;7.57;3.55;;;;;;;12.86;100.00;99395.69;5010986;28;20040;-76
2022/10/02 06:40:36;;;;;;;8.82;3.30;;;;;;;13.10;100.00;99392.50;5010970;28;20065;-76
2022/10/02 06:43:26;;;;;;;10.15;3.92;;;;;;;13.84;100.00;99391.41;5010764;28;20851;-76
2022/10/02 06:46:21;;;;;;;11.10;4.00;;;;;;;15.18;96.67;99382.41;5010743;28;20053;-76
2022/10/02 06:49:25;;;;;;;10.30;3.88;;;;;;;16.07;90.57;99394.44;5010424;28;20032;-76
2022/10/02 06:52:04;;;;;;;8.07;2.72;;;;;;;16.02;88.87;99393.94;5010875;28;20030;-76
2022/10/02 06:54:45;;;;;;;10.95;3.47;;;;;;;15.81;88.48;99395.50;4994000;28;20444;-76
2022/10/02 06:57:29;;;;;;;;;;;;;;;16.28;88.34;99393.81;5007840;28;20145;-76
2022/10/02 07:00:11;;;;;;;9.98;3.22;;;;;;;16.43;84.85;99397.91;5010511;28;20396;-77
2022/10/02 07:03:05;;;;;;;6.13;2.80;;;;;;;15.82;85.89;99400.63;5010236;28;20082;-76
2022/10/02 07:05:49;;;;;;;6.32;2.85;;;;;;;15.41;87.80;99399.13;4998532;28;20050;-76
2022/10/02 07:08:20;;;;;;;6.80;3.38;;;;;;;15.12;88.36;99411.66;4998270;28;20023;-76
2022/10/02 07:11:33;;;;;;;8.00;2.78;;;;;;;15.16;88.97;99404.44;5078230;28;20396;-76
2022/10/02 07:14:20;;;;;;;7.60;2.72;;;;;;;15.03;89.02;99403.59;5019979;28;20045;-77
2022/10/02 07:17:15;;;;;;;7.22;2.95;;;;;;;14.71;90.32;99409.28;5016170;28;20038;-76
2022/10/02 07:20:02;;;;;;;11.15;3.05;;;;;;;14.35;91.94;99421.22;5009990;28;20025;-76
2022/10/02 07:22:59;;;;;;;7.60;3.50;;;;;;;14.15;93.18;99421.66;5009820;28;20061;-76
2022/10/02 07:25:46;;;;;;;6.40;2.80;;;;;;;13.94;94.90;99431.75;4990210;28;20137;-76
2022/10/02 07:28:20;;;;;;;7.70;2.95;;;;;;;13.63;96.57;99425.00;4990261;28;20038;-76
2022/10/02 07:31:05;;;;;;;10.80;3.33;;;;;;;13.48;97.58;99429.41;4990086;28;20045;-76
2022/10/02 07:34:00;;;;;;;6.82;2.42;;;;;;;13.34;99.08;99440.72;4989633;28;20085;-76
2022/10/02 07:36:43;;;;;;;8.27;3.45;;;;;;;13.32;100.00;99436.53;4989943;28;20104;-77
2022/10/02 07:39:35;;;;;;;9.00;3.20;;;;;;;13.77;99.98;99434.59;4990221;28;20532;-76
2022/10/02 07:42:41;;;;;;;6.38;2.75;;;;;;;14.52;98.32;99429.78;4990168;28;20058;-76
2022/10/02 07:45:28;;;;;;;5.57;2.67;;;;;;;14.90;95.90;99428.03;4932254;29;20031;-76
2022/10/02 07:48:18;;;;;;;8.25;3.30;;;;;;;14.96;95.67;99419.78;4959226;28;20077;-76
2022/10/02 07:51:45;;;;;;;9.73;2.97;;;;;;;15.10;94.67;99421.44;4989917;28;20023;-76
2022/10/02 07:54:08;;;;;;;6.40;2.53;;;;;;;15.11;93.86;99430.16;4989820;28;20193;-77
2022/10/02 07:56:34;;;;;;;8.73;2.72;;;;;;;15.09;93.61;99413.69;4989770;28;20470;-77
2022/10/02 07:59:09;;;;;;;8.52;3.13;;;;;;;15.21;93.30;99413.69;4989949;28;20093;-76
2022/10/02 08:01:37;;;;;;;8.15;2.72;;;;;;;15.34;92.55;99408.41;4989615;28;20417;-76
2022/10/02 08:04:23;;;;;;;8.80;3.53;;;;;;;15.56;92.10;99414.78;4989617;28;20529;-76
2022/10/02 08:06:55;;;;;;;13.35;6.00;;;;;;;15.74;91.77;99412.66;4989571;28;20157;-76
2022/10/02 08:09:34;;;;;;;32.60;23.13;;;;;;;15.89;91.07;99396.63;4989453;28;20069;-77
2022/10/02 08:12:26;;;;;;;7.90;4.32;;;;;;;15.90;90.37;99406.19;4989282;28;20054;-76
2022/10/02 08:14:54;;;;;;;10.90;4.20;;;;;;;16.12;89.52;99404.59;4989519;28;20473;-77
2022/10/02 08:17:58;;;;;;;5.00;2.63;;;;;;;16.51;89.01;99402.59;4989435;28;20092;-77
2022/10/02 08:20:30;;;;;;;10.38;3.00;;;;;;;16.70;86.46;99395.00;4956964;28;20511;-77
2022/10/02 08:23:02;;;;;;;9.50;3.38;;;;;;;16.74;86.06;99396.50;5008168;28;20042;-77
2022/10/02 08:25:36;;;;;;;9.18;4.13;;;;;;;16.69;85.16;99396.81;5008717;28;20642;-77
2022/10/02 08:28:16;;;;;;;7.75;3.28;;;;;;;16.57;84.84;99397.72;5019364;28;20080;-77
2022/10/02 08:30:41;;;;;;;7.88;3.13;;;;;;;16.67;84.46;99397.88;5029116;28;20095;-76
2022/10/02 08:33:17;;;;;;;8.77;3.70;;;;;;;16.78;84.26;99404.97;5029406;28;20104;-76
2022/10/02 08:36:04;;;;;;;6.80;3.03;;;;;;;16.74;84.11;99396.50;5029198;28;20040;-76
2022/10/02 08:38:35;;;;;;;9.23;3.17;;;;;;;16.63;83.52;99399.88;5009492;28;20030;-76
2022/10/02 08:41:35;;;;;;;7.30;3.15;;;;;;;16.60;84.31;99380.88;5009595;28;20513;-77
2022/10/02 08:44:01;;;;;;;17.95;6.32;;;;;;;16.63;84.44;99399.06;5009755;28;20064;-76
2022/10/02 08:46:57;;;;;;;32.67;12.95;;;;;;;16.56;84.42;99403.09;5026389;28;20100;-76
2022/10/02 08:49:46;;;;;;;13.38;5.90;;;;;;;16.52;84.36;99378.84;5029190;28;20112;-76
2022/10/02 08:52:23;;;;;;;24.65;9.13;;;;;;;16.57;84.69;99387.22;5029302;28;20032;-76
2022/10/02 08:55:17;;;;;;;16.38;6.40;;;;;;;16.73;83.80;99386.94;5071477;28;20036;-76
2022/10/02 08:57:51;;;;;;;33.45;11.63;;;;;;;16.72;83.18;99379.94;5091449;28;20467;-76
2022/10/02 09:00:37;;;;;;;22.40;8.35;;;;;;;16.78;82.91;99381.31;5091940;28;20020;-76
2022/10/02 09:03:27;;;;;;;32.20;12.23;;;;;;;16.85;82.85;99385.13;5105609;28;20032;-77
2022/10/02 09:05:58;;;;;;;12.90;5.82;;;;;;;17.01;81.98;99384.78;5112081;28;20118;-77
2022/10/02 09:08:32;;;;;;;15.00;7.03;;;;;;;16.99;80.86;99370.94;5112071;28;20080;-76
2022/10/02 09:11:22;;;;;;;12.45;5.88;;;;;;;17.19;80.89;99368.44;5094206;28;20023;-76
2022/10/02 09:14:04;;;;;;;17.73;6.32;;;;;;;17.40;80.16;99367.66;5071306;28;20100;-76
2022/10/02 09:16:57;;;;;;;11.48;4.30;;;;;;;17.41;77.93;99358.84;5071113;28;20020;-76
2022/10/02 09:19:40;;;;;;;16.70;5.22;;;;;;;17.26;77.76;99360.88;5071658;28;20020;-76
2022/10/02 09:22:46;;;;;;;17.33;6.57;;;;;;;17.20;79.35;99361.38;5071443;28;20056;-76
2022/10/02 09:25:36;;;;;;;12.15;4.28;;;;;;;17.06;78.43;99367.69;5071513;28;20041;-76
2022/10/02 09:28:20;;;;;;;11.80;4.63;;;;;;;17.07;78.21;99381.69;5071448;28;20031;-76
2022/10/02 09:31:04;;;;;;;13.57;6.60;;;;;;;16.99;78.12;99370.94;5071130;28;20039;-76
2022/10/02 09:34:08;;;;;;;12.13;6.78;;;;;;;16.91;78.11;99374.16;5071288;28;20017;-76
2022/10/02 09:37:01;;;;;;;15.77;5.95;;;;;;;16.86;79.11;99371.03;5032432;28;20040;-76
2022/10/02 09:39:50;;;;;;;20.35;8.70;;;;;;;16.76;79.55;99375.31;5032574;28;20029;-76
2022/10/02 09:42:48;;;;;;;34.63;14.80;;;;;;;16.67;80.61;99369.78;5032492;28;20045;-76
2022/10/02 09:45:49;;;;;;;25.02;10.10;;;;;;;16.74;80.88;99361.47;5032525;28;20021;-76
2022/10/02 09:48:38;;;;;;;16.25;6.78;;;;;;;16.76;80.84;99357.75;5038930;28;20085;-76
2022/10/02 09:51:26;;;;;;;28.48;9.32;;;;;;;16.84;80.10;99355.34;5052379;28;20368;-76
2022/10/02 09:54:08;;;;;;;16.20;6.25;;;;;;;16.82;79.38;99362.56;5051970;28;20167;-76
2022/10/02 09:56:40;;;;;;;17.33;6.15;;;;;;;16.78;79.21;99362.91;5052036;28;20033;-76
2022/10/02 09:59:33;;;;;;;20.00;7.05;;;;;;;16.79;79.64;99365.41;5052238;28;20669;-76
2022/10/02 10:02:16;;;;;;;17.27;8.75;;;;;;;16.89;79.62;99362.91;5052189;28;20043;-76
2022/10/02 10:05:07;;;;;;;9.25;6.95;;;;;;;17.04;79.02;99364.34;5035181;28;20047;-76
2022/10/02 10:08:07;;;;;;;10.15;6.45;;;;;;;16.97;78.19;99368.41;5051510;28;20049;-76
2022/10/02 10:10:49;;;;;;;13.00;7.80;;;;;;;16.83;78.33;99352.84;5051567;28;20029;-76
2022/10/02 10:13:39;;;;;;;9.57;6.25;;;;;;;16.74;79.15;99359.66;5070229;28;20672;-76
2022/10/02 10:16:17;;;;;;;10.73;5.47;;;;;;;16.68;79.72;99354.81;5088643;28;20020;-76
2022/10/02 10:18:49;;;;;;;12.95;9.15;;;;;;;16.87;80.55;99349.03;5074095;28;20528;-76
2022/10/02 10:21:33;;;;;;;21.20;12.60;;;;;;;17.06;80.26;99357.16;5074428;28;20044;-76
2022/10/02 10:24:22;;;;;;;8.50;4.75;;;;;;;17.13;80.25;99342.56;5074357;28;20028;-76
2022/10/02 10:26:53;;;;;;;14.45;8.18;;;;;;;17.21;79.59;99337.53;5074057;28;20564;-76
2022/10/02 10:29:49;;;;;;;27.48;17.63;;;;;;;17.20;78.89;99324.53;5074122;28;20024;-76
2022/10/02 10:32:47;;;;;;;15.90;8.20;;;;;;;17.25;78.59;99335.50;5074045;28;20564;-76
2022/10/02 10:35:33;;;;;;;17.02;10.40;;;;;;;17.20;78.81;99322.72;5074029;28;20361;-76
2022/10/02 10:38:37;;;;;;;7.03;3.47;;;;;;;17.19;78.73;99336.84;5074469;28;20035;-76
2022/10/02 10:41:18;;;;;;;12.57;6.35;;;;;;;16.98;78.98;99322.75;5073813;28;20034;-76
2022/10/02 10:43:59;;;;;;;15.38;8.38;;;;;;;16.85;79.48;99330.72;5098941;28;20023;-76
2022/10/02 10:46:30;;;;;;;14.55;7.57;;;;;;;16.87;79.18;99326.19;5113670;28;20027;-76
2022/10/02 10:49:34;;;;;;;16.40;8.48;;;;;;;16.75;78.27;99334.19;5114001;28;20489;-76
2022/10/02 10:52:29;;;;;;;27.23;17.80;;;;;;;16.76;78.70;99333.25;5114349;28;20069;-76
2022/10/02 10:55:31;;;;;;;12.45;9.02;;;;;;;16.73;77.80;99320.31;5031070;28;20041;-76
2022/10/02 10:58:14;;;;;;;21.33;11.98;;;;;;;16.83;77.69;99310.78;4953207;29;20039;-76
2022/10/02 11:01:05;;;;;;;8.43;4.03;;;;;;;16.89;77.74;99318.19;4952935;29;20530;-76
2022/10/02 11:03:37;;;;;;;13.15;8.88;;;;;;;16.95;78.06;99315.09;4953176;29;20035;-76
2022/10/02 11:06:25;;;;;;;11.55;5.65;;;;;;;16.99;78.32;99311.25;4952834;29;20047;-76
2022/10/02 11:09:18;;;;;;;7.07;4.50;;;;;;;17.06;78.27;99301.91;4952641;28;20066;-76
2022/10/02 11:11:45;;;;;;;6.03;3.08;;;;;;;17.03;77.65;99307.44;4952862;29;20031;-76
2022/10/02 11:14:50;;;;;;;41.30;28.02;;;;;;;17.05;77.30;99302.88;4952939;29;20113;-76
2022/10/02 11:17:35;;;;;;;29.52;18.35;;;;;;;17.25;75.89;99292.56;4914551;29;20087;-76
2022/10/02 11:20:03;;;;;;;12.25;4.93;;;;;;;17.40;75.17;99284.28;4914677;29;20051;-76
2022/10/02 11:22:52;;;;;;;15.05;6.45;;;;;;;17.42;75.05;99289.41;4914568;29;20040;-76
2022/10/02 11:25:29;;;;;;;34.15;17.20;;;;;;;17.41;76.06;99287.75;4914653;29;20452;-76
2022/10/02 11:28:07;;;;;;;22.27;12.35;;;;;;;17.52;76.01;99281.59;4914195;29;20135;-76
2022/10/02 11:30:56;;;;;;;47.22;26.13;;;;;;;17.52;75.95;99278.97;4931544;28;20056;-76
2022/10/02 11:33:39;;;;;;;48.67;27.17;;;;;;;17.63;76.79;99278.94;5010857;28;20445;-76
2022/10/02 11:36:26;;;;;;;21.00;8.77;;;;;;;17.78;75.18;99285.63;5050377;28;20033;-76
2022/10/02 11:39:25;;;;;;;26.27;18.58;;;;;;;18.00;75.26;99279.41;5049836;28;20032;-76
2022/10/02 11:42:15;;;;;;;11.77;7.70;;;;;;;17.91;74.58;99277.53;5050129;28;20033;-76
2022/10/02 11:44:55;;;;;;;22.58;14.60;;;;;;;17.78;74.58;99275.09;5050119;28;20091;-76
2022/10/02 11:47:36;;;;;;;15.02;9.50;;;;;;;17.66;73.74;99279.53;5050369;28;20120;-76
2022/10/02 11:50:28;;;;;;;18.67;16.00;;;;;;;17.62;74.53;99272.00;5050291;28;20461;-76
2022/10/02 11:53:19;;;;;;;13.93;9.30;;;;;;;17.59;74.45;99280.16;5055497;28;20060;-76
2022/10/02 11:56:08;;;;;;;10.50;5.45;;;;;;;17.57;74.04;99289.94;5113039;28;20028;-76
2022/10/02 11:59:17;;;;;;;6.50;3.60;;;;;;;17.48;74.41;99274.91;5113061;28;20106;-76
2022/10/02 12:02:05;;;;;;;9.10;3.63;;;;;;;17.45;74.84;99281.28;5112826;28;20475;-76
2022/10/02 12:04:39;;;;;;;12.98;5.70;;;;;;;17.45;75.19;99287.38;5112944;28;20459;-76
2022/10/02 12:07:17;;;;;;;20.65;8.05;;;;;;;17.33;73.83;99280.47;5112616;28;20043;-76
2022/10/02 12:10:00;;;;;;;7.82;4.50;;;;;;;17.37;74.51;99278.44;5112630;28;20457;-76
2022/10/02 12:12:37;;;;;;;16.05;8.45;;;;;;;17.33;74.58;99287.53;5113028;28;20035;-76
2022/10/02 12:15:33;;;;;;;9.25;4.70;;;;;;;17.25;74.11;99289.94;5112738;28;20055;-76
2022/10/02 12:18:40;;;;;;;10.23;5.38;;;;;;;17.25;75.33;99285.50;5112652;28;20032;-76
2022/10/02 12:27:35;;;;;;;8.25;2.63;;;;;;;16.67;73.80;99277.75;4971158;28;20432;-76
2022/10/02 12:30:09;;;;;;;6.07;2.40;;;;;;;16.56;73.69;99296.16;4970696;28;20030;-76
2022/10/02 12:32:42;;;;;;;5.28;2.70;;;;;;;16.57;74.25;99291.72;4970898;28;20038;-76
2022/10/02 12:35:38;;;;;;;7.13;2.72;;;;;;;16.60;74.55;99291.47;4970959;28;20053;-76
2022/10/02 12:38:19;;;;;;;6.25;3.17;;;;;;;16.67;74.30;99290.88;4970603;28;20038;-76